createdAt,value
2018-07-17T00:00:22.823Z,98852.80
2018-07-17T00:02:51.847Z,98851.92
2018-07-17T00:05:20.916Z,98848.98
2018-07-17T00:07:50.293Z,98852.07
2018-07-17T00:10:19.354Z,98856.11
2018-07-17T00:12:48.439Z,98856.83
2018-07-17T00:15:17.976Z,98856.69
2018-07-17T00:17:46.906Z,98856.14
2018-07-17T00:20:15.992Z,98851.48
2018-07-17T00:22:45.996Z,98844.75
2018-07-17T00:25:15.156Z,98847.62
2018-07-17T00:27:44.164Z,98846.95
2018-07-17T00:30:13.521Z,98843.91
2018-07-17T00:32:42.555Z,98840.73
2018-07-17T00:35:11.748Z,98852.16
2018-07-17T00:37:40.838Z,98851.50
2018-07-17T00:40:13.016Z,98842.59
2018-07-17T00:42:42.212Z,98844.80
2018-07-17T00:45:11.252Z,98844.31
2018-07-17T00:47:40.497Z,98844.69
2018-07-17T00:50:09.409Z,98844.39
2018-07-17T00:52:38.361Z,98842.27
2018-07-17T00:55:07.562Z,98838.56
2018-07-17T00:57:36.587Z,98840.75
2018-07-17T01:00:06.128Z,98847.80
2018-07-17T01:02:40.140Z,98847.64
2018-07-17T01:05:14.339Z,98848.14
2018-07-17T01:07:48.814Z,98836.52
2018-07-17T01:10:22.882Z,98840.59
2018-07-17T01:12:51.281Z,98843.97
2018-07-17T01:15:50.605Z,98842.25
2018-07-17T01:18:19.917Z,98847.29
2018-07-17T01:20:48.934Z,98847.63
2018-07-17T01:23:18.064Z,98850.84
2018-07-17T01:25:47.657Z,98854.38
2018-07-17T01:28:16.787Z,98854.70
2018-07-17T01:30:45.793Z,98850.66
2018-07-17T01:33:14.889Z,98849.31
2018-07-17T01:35:43.991Z,98841.08
2018-07-17T01:38:12.963Z,98840.88
2018-07-17T01:40:42.135Z,98855.18
2018-07-17T01:43:11.300Z,98846.08
2018-07-17T01:45:40.445Z,98861.42
2018-07-17T01:48:09.479Z,98851.34
2018-07-17T01:50:38.400Z,98855.03
2018-07-17T01:53:07.379Z,98841.75
2018-07-17T01:55:36.556Z,98848.48
2018-07-17T01:58:05.622Z,98838.91
2018-07-17T02:00:34.664Z,98838.23
2018-07-17T02:03:04.071Z,98831.85
2018-07-17T02:05:32.997Z,98822.11
2018-07-17T02:08:02.110Z,98833.20
2018-07-17T02:10:31.428Z,98849.98
2018-07-17T02:13:00.520Z,98851.16
2018-07-17T02:15:29.607Z,98846.11
2018-07-17T02:17:58.763Z,98847.66
2018-07-17T02:20:27.795Z,98858.05
2018-07-17T02:22:56.848Z,98858.39
2018-07-17T02:25:26.309Z,98855.38
2018-07-17T02:27:55.317Z,98848.97
2018-07-17T02:30:24.276Z,98855.88
2018-07-17T02:32:53.887Z,98853.02
2018-07-17T02:35:22.893Z,98853.17
2018-07-17T02:37:51.922Z,98855.86
2018-07-17T02:40:24.895Z,98855.52
2018-07-17T02:42:54.109Z,98852.02
2018-07-17T02:45:23.297Z,98842.42
2018-07-17T02:47:52.367Z,98843.60
2018-07-17T02:50:21.820Z,98833.53
2018-07-17T02:52:51.092Z,98843.97
2018-07-17T02:55:26.755Z,98842.78
2018-07-17T02:57:56.224Z,98845.13
2018-07-17T03:00:26.527Z,98835.70
2018-07-17T03:02:55.432Z,98839.24
2018-07-17T03:05:24.273Z,98835.70
2018-07-17T03:07:54.246Z,98837.20
2018-07-17T03:10:23.731Z,98839.91
2018-07-17T03:12:56.441Z,98837.04
2018-07-17T03:15:25.886Z,98835.36
2018-07-17T03:17:54.985Z,98849.31
2018-07-17T03:20:24.096Z,98847.81
2018-07-17T03:22:53.052Z,98844.59
2018-07-17T03:25:23.138Z,98848.63
2018-07-17T03:27:53.716Z,98847.95
2018-07-17T03:30:22.724Z,98841.08
2018-07-17T03:32:51.667Z,98829.81
2018-07-17T03:35:20.860Z,98831.19
2018-07-17T03:37:49.894Z,98834.36
2018-07-17T03:40:18.906Z,98834.19
2018-07-17T03:42:48.488Z,98825.94
2018-07-17T03:45:17.465Z,98822.07
2018-07-17T03:47:46.485Z,98832.48
2018-07-17T03:50:15.781Z,98847.30
2018-07-17T03:52:44.955Z,98852.83
2018-07-17T03:55:14.116Z,98843.72
2018-07-17T03:57:43.096Z,98840.98
2018-07-17T04:00:12.191Z,98838.55
2018-07-17T04:02:41.438Z,98830.62
2018-07-17T04:05:10.436Z,98831.61
2018-07-17T04:07:39.458Z,98836.64
2018-07-17T04:10:08.628Z,98836.02
2018-07-17T04:12:37.575Z,98838.23
2018-07-17T04:15:06.581Z,98839.54
2018-07-17T04:17:35.624Z,98836.52
2018-07-17T04:20:05.316Z,98832.30
2018-07-17T04:22:34.436Z,98827.39
2018-07-17T04:25:03.654Z,98822.80
2018-07-17T04:27:32.876Z,98829.20
2018-07-17T04:30:01.882Z,98833.23
2018-07-17T04:32:31.090Z,98833.08
2018-07-17T04:35:00.358Z,98834.37
2018-07-17T04:37:29.457Z,98833.46
2018-07-17T04:39:58.587Z,98834.34
2018-07-17T04:42:27.595Z,98839.79
2018-07-17T04:44:56.829Z,98848.70
2018-07-17T04:47:25.818Z,98844.28
2018-07-17T04:49:55.239Z,98837.33
2018-07-17T04:52:24.529Z,98836.30
2018-07-17T04:54:53.588Z,98826.48
2018-07-17T04:57:22.790Z,98832.20
2018-07-17T04:59:51.854Z,98827.70
2018-07-17T05:02:20.995Z,98818.34
2018-07-17T05:04:50.126Z,98817.77
2018-07-17T05:07:19.149Z,98812.77
2018-07-17T05:09:48.255Z,98801.96
2018-07-17T05:12:17.563Z,98803.54
2018-07-17T05:14:47.568Z,98799.16
2018-07-17T05:17:16.530Z,98803.72
2018-07-17T05:19:45.706Z,98802.17
2018-07-17T05:22:14.630Z,98792.09
2018-07-17T05:24:43.872Z,98787.78
2018-07-17T05:27:12.983Z,98788.53
2018-07-17T05:29:41.958Z,98792.34
2018-07-17T05:32:11.673Z,98793.83
2018-07-17T05:34:40.912Z,98791.20
2018-07-17T05:37:09.895Z,98789.64
2018-07-17T05:39:39.025Z,98781.08
2018-07-17T05:42:08.258Z,98786.66
2018-07-17T05:44:37.625Z,98785.53
2018-07-17T05:47:06.836Z,98779.42
2018-07-17T05:49:36.591Z,98784.07
2018-07-17T05:52:05.701Z,98785.84
2018-07-17T05:54:34.630Z,98786.56
2018-07-17T05:57:04.178Z,98795.06
2018-07-17T05:59:33.187Z,98801.33
2018-07-17T06:02:02.292Z,98795.56
2018-07-17T06:04:31.671Z,98795.92
2018-07-17T06:07:00.662Z,98790.92
2018-07-17T06:09:29.796Z,98781.09
2018-07-17T06:11:58.806Z,98775.49
2018-07-17T06:14:27.889Z,98761.53
2018-07-17T06:16:57.056Z,98761.09
2018-07-17T06:19:26.139Z,98761.50
2018-07-17T06:21:55.129Z,98759.15
2018-07-17T06:24:24.039Z,98760.83
2018-07-17T06:26:53.203Z,98756.74
2018-07-17T06:29:22.740Z,98759.98
2018-07-17T06:31:51.775Z,98756.27
2018-07-17T06:34:21.414Z,98767.39
2018-07-17T06:36:50.440Z,98759.80
2018-07-17T06:39:19.514Z,98761.16
2018-07-17T06:41:48.675Z,98752.25
2018-07-17T06:44:17.621Z,98754.90
2018-07-17T06:46:46.783Z,98747.65
2018-07-17T06:49:16.172Z,98746.68
2018-07-17T06:51:45.132Z,98749.01
2018-07-17T06:54:14.155Z,98747.12
2018-07-17T06:56:43.275Z,98749.16
2018-07-17T06:59:12.499Z,98747.03
2018-07-17T07:01:41.363Z,98743.87
2018-07-17T07:04:10.481Z,98747.42
2018-07-17T07:06:39.483Z,98737.16
2018-07-17T07:09:09.982Z,98732.77
2018-07-17T07:11:39.650Z,98733.79
2018-07-17T07:14:08.559Z,98734.61
2018-07-17T07:16:37.556Z,98729.72
2018-07-17T07:19:07.237Z,98724.42
2018-07-17T07:21:36.248Z,98729.46
2018-07-17T07:24:05.422Z,98721.77
2018-07-17T07:26:34.502Z,98718.52
2018-07-17T07:29:03.562Z,98711.52
2018-07-17T07:31:32.676Z,98709.09
2018-07-17T07:34:01.714Z,98700.89
2018-07-17T07:36:30.812Z,98708.71
2018-07-17T07:38:59.804Z,98713.86
2018-07-17T07:41:28.894Z,98713.25
2018-07-17T07:43:58.307Z,98707.19
2018-07-17T07:46:27.424Z,98709.08
2018-07-17T07:48:56.760Z,98702.53
2018-07-17T07:51:25.831Z,98705.11
2018-07-17T07:53:54.937Z,98706.48
2018-07-17T07:56:24.330Z,98702.09
2018-07-17T08:05:38.701Z,98702.19
2018-07-17T08:08:07.639Z,98698.69
2018-07-17T08:12:06.477Z,98698.82
2018-07-17T08:14:35.631Z,98692.30
2018-07-17T08:18:07.344Z,98688.53
2018-07-17T08:20:36.361Z,98690.43
2018-07-17T08:23:05.293Z,98687.61
2018-07-17T08:25:34.524Z,98683.70
2018-07-17T08:28:03.494Z,98688.80
2018-07-17T08:30:32.527Z,98694.14
2018-07-17T08:33:02.016Z,98699.19
2018-07-17T08:35:30.848Z,98691.08
2018-07-17T08:37:59.847Z,98688.56
2018-07-17T08:40:29.005Z,98680.03
2018-07-17T08:42:57.903Z,98679.52
2018-07-17T08:45:26.864Z,98677.95
2018-07-17T08:47:56.144Z,98673.20
2018-07-17T08:50:25.063Z,98674.67
2018-07-17T08:52:54.019Z,98672.36
2018-07-17T08:55:23.244Z,98671.94
2018-07-17T08:57:52.160Z,98679.06
2018-07-17T09:00:21.331Z,98681.34
2018-07-17T09:02:50.937Z,98690.32
2018-07-17T09:05:19.864Z,98689.31
2018-07-17T09:07:48.958Z,98703.22
2018-07-17T09:10:18.797Z,98706.86
2018-07-17T09:12:47.752Z,98719.08
2018-07-17T09:15:16.782Z,98718.97
2018-07-17T09:17:45.762Z,98721.78
2018-07-17T09:20:14.874Z,98722.20
2018-07-17T09:22:43.883Z,98735.89
2018-07-17T09:25:13.558Z,98753.11
2018-07-17T09:27:42.614Z,98807.05
2018-07-17T09:30:11.724Z,98889.36
2018-07-17T09:32:41.266Z,98864.52
2018-07-17T09:35:10.267Z,98886.78
2018-07-17T09:37:39.354Z,98882.05
2018-07-17T09:40:08.787Z,98861.82
2018-07-17T09:42:37.993Z,98871.39
2018-07-17T09:45:07.351Z,98897.36
2018-07-17T09:47:36.239Z,98916.50
2018-07-17T09:50:05.188Z,98923.23
2018-07-17T09:52:34.200Z,98935.33
2018-07-17T09:55:03.510Z,98933.66
2018-07-17T09:57:32.460Z,98921.52
2018-07-17T10:00:01.522Z,98919.73
2018-07-17T10:02:32.025Z,98914.27
2018-07-17T10:05:01.191Z,98903.50
2018-07-17T10:07:30.168Z,98895.92
2018-07-17T10:09:59.385Z,98889.27
2018-07-17T10:12:28.435Z,98883.86
2018-07-17T10:14:57.568Z,98862.27
2018-07-17T10:18:29.854Z,98847.78
2018-07-17T10:20:58.807Z,98849.92
2018-07-17T10:23:28.063Z,98848.24
2018-07-17T10:25:57.342Z,98836.81
2018-07-17T10:28:26.327Z,98834.45
2018-07-17T10:30:55.391Z,98834.12
2018-07-17T10:33:24.537Z,98829.42
2018-07-17T10:35:53.651Z,98817.58
2018-07-17T10:38:22.627Z,98811.45
2018-07-17T10:40:51.770Z,98807.83
2018-07-17T10:43:20.861Z,98793.52
2018-07-17T10:45:49.888Z,98790.30
2018-07-17T10:48:19.093Z,98790.77
2018-07-17T10:50:48.111Z,98792.47
2018-07-17T10:53:17.250Z,98788.81
2018-07-17T10:55:46.662Z,98788.98
2018-07-17T10:58:15.619Z,98778.21
2018-07-17T11:00:44.696Z,98776.63
2018-07-17T11:03:13.868Z,98767.90
2018-07-17T11:05:43.956Z,98757.87
2018-07-17T11:08:13.344Z,98743.78
2018-07-17T11:10:42.372Z,98735.66
2018-07-17T11:13:11.456Z,98724.97
2018-07-17T11:15:40.667Z,98713.80
2018-07-17T11:18:09.686Z,98717.35
2018-07-17T11:20:38.637Z,98711.52
2018-07-17T11:23:07.622Z,98703.05
2018-07-17T11:25:36.638Z,98700.64
2018-07-17T11:34:50.998Z,98686.56
2018-07-17T11:37:20.132Z,98675.29
2018-07-17T11:39:49.210Z,98669.79
2018-07-17T11:42:18.893Z,98664.09
2018-07-17T11:44:47.898Z,98654.24
2018-07-17T11:47:17.004Z,98642.85
2018-07-17T11:49:46.354Z,98643.96
2018-07-17T11:52:15.280Z,98640.73
2018-07-17T11:54:44.417Z,98642.82
2018-07-17T11:57:13.702Z,98646.83
2018-07-17T11:59:42.731Z,98647.97
2018-07-17T12:02:11.896Z,98646.14
2018-07-17T12:04:41.529Z,98647.11
2018-07-17T12:07:10.481Z,98649.88
2018-07-17T12:09:39.524Z,98654.23
2018-07-17T12:12:08.792Z,98648.59
2018-07-17T12:14:37.755Z,98654.19
2018-07-17T12:17:06.820Z,98648.73
2018-07-17T12:19:36.345Z,98655.48
2018-07-17T12:22:05.511Z,98659.09
2018-07-17T12:24:34.779Z,98655.88
2018-07-17T12:27:04.094Z,98660.27
2018-07-17T12:29:33.092Z,98656.36
2018-07-17T12:32:02.460Z,98650.58
2018-07-17T12:34:31.718Z,98654.38
2018-07-17T12:37:00.845Z,98652.84
2018-07-17T12:39:29.898Z,98644.30
2018-07-17T12:41:59.450Z,98641.95
2018-07-17T12:44:28.570Z,98634.05
2018-07-17T12:46:57.659Z,98625.23
2018-07-17T12:49:26.859Z,98619.81
2018-07-17T12:51:55.922Z,98627.70
2018-07-17T12:54:24.926Z,98623.88
2018-07-17T12:56:54.491Z,98621.13
2018-07-17T12:59:23.445Z,98616.56
2018-07-17T13:01:52.299Z,98619.75
2018-07-17T13:04:34.676Z,98622.92
2018-07-17T13:07:03.702Z,98619.02
2018-07-17T13:09:32.827Z,98616.14
2018-07-17T13:12:02.077Z,98609.80
2018-07-17T13:14:31.129Z,98603.64
2018-07-17T13:17:00.218Z,98602.68
2018-07-17T13:19:29.609Z,98592.25
2018-07-17T13:21:58.532Z,98591.81
2018-07-17T13:24:27.416Z,98589.94
2018-07-17T13:26:57.614Z,98587.59
2018-07-17T13:29:26.685Z,98597.42
2018-07-17T13:31:55.815Z,98597.06
2018-07-17T13:34:25.455Z,98599.33
2018-07-17T13:36:54.489Z,98599.56
2018-07-17T13:39:23.484Z,98593.74
2018-07-17T13:41:52.654Z,98590.02
2018-07-17T13:44:21.817Z,98590.73
2018-07-17T13:46:50.918Z,98588.13
2018-07-17T13:49:20.089Z,98584.98
2018-07-17T13:51:49.295Z,98583.13
2018-07-17T13:54:18.405Z,98575.13
2018-07-17T13:56:47.508Z,98578.15
2018-07-17T13:59:16.447Z,98570.89
2018-07-17T14:01:45.652Z,98564.94
2018-07-17T14:04:15.380Z,98566.52
2018-07-17T14:06:44.408Z,98563.78
2018-07-17T14:09:15.617Z,98554.47
2018-07-17T14:11:44.820Z,98553.59
2018-07-17T14:14:14.451Z,98558.13
2018-07-17T14:16:43.826Z,98554.50
2018-07-17T14:19:12.828Z,98557.90
2018-07-17T14:21:49.124Z,98547.78
2018-07-17T14:24:18.213Z,98541.66
2018-07-17T14:26:47.590Z,98537.23
2018-07-17T14:29:16.658Z,98538.44
2018-07-17T14:31:46.680Z,98526.08
2018-07-17T14:34:15.608Z,98530.75
2018-07-17T14:36:45.316Z,98532.59
2018-07-17T14:39:14.514Z,98540.43
2018-07-17T14:41:43.752Z,98529.55
2018-07-17T14:44:12.932Z,98527.31
2018-07-17T14:46:41.873Z,98524.41
2018-07-17T14:49:10.803Z,98521.86
2018-07-17T14:51:39.911Z,98510.75
2018-07-17T14:54:09.031Z,98508.50
2018-07-17T14:56:38.066Z,98514.87
2018-07-17T14:59:07.321Z,98514.10
2018-07-17T15:01:36.351Z,98507.46
2018-07-17T15:04:05.350Z,98510.94
2018-07-17T15:06:34.730Z,98508.53
2018-07-17T15:09:08.755Z,98511.20
2018-07-17T15:11:37.972Z,98515.08
2018-07-17T15:14:07.103Z,98514.48
2018-07-17T15:16:36.224Z,98503.14
2018-07-17T15:19:05.767Z,98493.41
2018-07-17T15:21:34.808Z,98493.51
2018-07-17T15:24:03.804Z,98491.73
2018-07-17T15:26:33.029Z,98492.88
2018-07-17T15:29:01.999Z,98496.89
2018-07-17T15:31:31.228Z,98501.29
2018-07-17T15:34:00.267Z,98496.95
2018-07-17T15:36:29.292Z,98495.97
2018-07-17T15:38:58.383Z,98496.05
2018-07-17T15:41:27.423Z,98497.73
2018-07-17T15:43:56.482Z,98497.20
2018-07-17T15:46:25.469Z,98494.09
2018-07-17T15:48:54.658Z,98494.72
2018-07-17T15:51:23.663Z,98490.09
2018-07-17T15:53:52.747Z,98481.80
2018-07-17T15:56:22.166Z,98485.89
2018-07-17T15:58:51.075Z,98489.69
2018-07-17T16:01:20.152Z,98492.17
2018-07-17T16:03:49.208Z,98502.53
2018-07-17T16:06:18.238Z,98492.05
2018-07-17T16:08:47.500Z,98489.63
2018-07-17T16:11:16.772Z,98488.27
2018-07-17T16:13:46.146Z,98487.27
2018-07-17T16:16:15.145Z,98485.53
2018-07-17T16:18:44.312Z,98493.11
2018-07-17T16:21:13.503Z,98490.32
2018-07-17T16:23:42.596Z,98492.31
2018-07-17T16:26:12.101Z,98493.54
2018-07-17T16:28:41.087Z,98493.97
2018-07-17T16:31:10.159Z,98493.59
2018-07-17T16:33:39.435Z,98500.75
2018-07-17T16:36:08.607Z,98506.33
2018-07-17T16:38:37.652Z,98511.53
2018-07-17T16:41:07.495Z,98510.75
2018-07-17T16:43:36.430Z,98511.45
2018-07-17T16:46:05.712Z,98514.02
2018-07-17T16:48:34.899Z,98513.81
2018-07-17T16:51:03.980Z,98517.03
2018-07-17T16:53:32.997Z,98523.22
2018-07-17T16:56:02.281Z,98525.53
2018-07-17T16:58:31.411Z,98515.59
2018-07-17T17:01:00.580Z,98514.39
2018-07-17T17:03:29.835Z,98522.55
2018-07-17T17:05:58.904Z,98531.94
2018-07-17T17:08:28.131Z,98528.58
2018-07-17T17:10:57.303Z,98531.14
2018-07-17T17:13:26.272Z,98541.25
2018-07-17T17:15:55.143Z,98540.92
2018-07-17T17:18:24.672Z,98538.79
2018-07-17T17:20:53.713Z,98538.56
2018-07-17T17:23:22.670Z,98543.33
2018-07-17T17:25:51.669Z,98542.06
2018-07-17T17:28:20.759Z,98542.73
2018-07-17T17:30:49.862Z,98550.05
2018-07-17T17:33:19.243Z,98548.77
2018-07-17T17:35:48.270Z,98553.77
2018-07-17T17:38:17.262Z,98555.00
2018-07-17T17:40:46.575Z,98555.50
2018-07-17T17:43:15.739Z,98558.96
2018-07-17T17:45:44.881Z,98560.56
2018-07-17T17:48:13.972Z,98557.75
2018-07-17T17:50:43.032Z,98553.67
2018-07-17T17:53:12.121Z,98561.08
2018-07-17T17:55:41.328Z,98553.56
2018-07-17T17:58:10.447Z,98553.25
2018-07-17T18:00:39.569Z,98548.98
2018-07-17T18:03:08.599Z,98542.12
2018-07-17T18:05:37.720Z,98548.06
2018-07-17T18:08:06.987Z,98548.67
2018-07-17T18:10:36.181Z,98554.66
2018-07-17T18:13:05.148Z,98558.56
2018-07-17T18:15:34.063Z,98562.11
2018-07-17T18:18:03.679Z,98564.77
2018-07-17T18:21:35.419Z,98565.97
2018-07-17T18:24:05.405Z,98570.25
2018-07-17T18:26:34.322Z,98570.88
2018-07-17T18:29:03.257Z,98566.39
2018-07-17T18:31:32.388Z,98571.17
2018-07-17T18:34:01.515Z,98566.39
2018-07-17T18:36:30.882Z,98570.86
2018-07-17T18:39:00.364Z,98577.74
2018-07-17T18:41:29.455Z,98569.19
2018-07-17T18:43:58.538Z,98572.32
2018-07-17T18:46:28.046Z,98575.47
2018-07-17T18:48:56.959Z,98578.39
2018-07-17T18:51:25.860Z,98577.95
2018-07-17T18:53:55.072Z,98581.08
2018-07-17T18:56:24.152Z,98580.02
2018-07-17T18:58:53.186Z,98579.70
2018-07-17T19:01:22.226Z,98578.80
2018-07-17T19:03:51.372Z,98582.00
2018-07-17T19:06:20.535Z,98581.48
2018-07-17T19:08:49.762Z,98582.20
2018-07-17T19:11:18.926Z,98581.72
2018-07-17T19:13:47.931Z,98581.06
2018-07-17T19:16:17.142Z,98582.31
2018-07-17T19:18:47.170Z,98588.16
2018-07-17T19:21:17.362Z,98587.82
2018-07-17T19:23:46.446Z,98598.23
2018-07-17T19:26:15.458Z,98594.36
2018-07-17T19:28:44.712Z,98592.80
2018-07-17T19:31:13.606Z,98590.66
2018-07-17T19:33:43.464Z,98591.69
2018-07-17T19:36:12.387Z,98595.55
2018-07-17T19:38:41.414Z,98592.08
2018-07-17T19:41:10.758Z,98594.44
2018-07-17T19:43:39.668Z,98596.51
2018-07-17T19:46:08.630Z,98600.11
2018-07-17T19:48:37.746Z,98595.95
2018-07-17T19:51:07.349Z,98597.41
2018-07-17T19:53:36.474Z,98600.11
2018-07-17T19:56:05.543Z,98599.69
2018-07-17T19:58:34.536Z,98593.34
2018-07-17T20:01:03.645Z,98598.39
2018-07-17T20:03:32.632Z,98594.09
2018-07-17T20:06:01.546Z,98597.30
2018-07-17T20:08:30.979Z,98597.73
2018-07-17T20:10:59.904Z,98603.44
2018-07-17T20:13:28.772Z,98600.59
2018-07-17T20:15:58.296Z,98601.31
2018-07-17T20:18:27.247Z,98600.95
2018-07-17T20:20:56.349Z,98607.91
2018-07-17T20:23:25.944Z,98608.31
2018-07-17T20:25:55.081Z,98609.67
2018-07-17T20:28:23.969Z,98603.42
2018-07-17T20:30:53.258Z,98602.08
2018-07-17T20:33:22.285Z,98604.98
2018-07-17T20:35:51.332Z,98600.81
2018-07-17T20:38:20.593Z,98608.26
2018-07-17T20:40:49.715Z,98609.70
2018-07-17T20:43:18.835Z,98605.01
2018-07-17T20:45:47.877Z,98614.73
2018-07-17T20:48:16.995Z,98610.16
2018-07-17T20:50:46.138Z,98615.36
2018-07-17T20:53:15.364Z,98621.59
2018-07-17T20:55:44.417Z,98621.37
2018-07-17T20:58:13.556Z,98620.55
2018-07-17T21:00:42.728Z,98623.38
2018-07-17T21:03:11.793Z,98622.20
2018-07-17T21:05:40.779Z,98625.04
2018-07-17T21:08:10.112Z,98626.27
2018-07-17T21:10:39.070Z,98623.50
2018-07-17T21:13:07.992Z,98622.10
2018-07-17T21:15:37.655Z,98623.05
2018-07-17T21:18:08.908Z,98623.57
2018-07-17T21:20:38.185Z,98624.41
2018-07-17T21:23:07.340Z,98624.28
2018-07-17T21:25:36.307Z,98626.04
2018-07-17T21:28:05.882Z,98625.69
2018-07-17T21:30:35.012Z,98626.47
2018-07-17T21:33:03.997Z,98623.25
2018-07-17T21:35:33.146Z,98630.61
2018-07-17T21:38:02.409Z,98629.48
2018-07-17T21:40:31.384Z,98629.92
2018-07-17T21:43:00.506Z,98633.74
2018-07-17T21:45:29.528Z,98630.44
2018-07-17T21:47:58.645Z,98633.98
2018-07-17T21:50:27.692Z,98635.33
2018-07-17T21:52:56.780Z,98634.38
2018-07-17T21:55:25.995Z,98640.22
2018-07-17T21:57:55.064Z,98634.30
2018-07-17T22:00:24.087Z,98632.83
2018-07-17T22:02:53.141Z,98626.79
2018-07-17T22:05:23.294Z,98637.91
2018-07-17T22:07:52.499Z,98630.84
2018-07-17T22:10:21.468Z,98634.06
2018-07-17T22:12:50.782Z,98631.56
2018-07-17T22:15:19.944Z,98630.92
2018-07-17T22:17:49.010Z,98633.16
2018-07-17T22:20:18.071Z,98636.26
2018-07-17T22:22:47.160Z,98638.13
2018-07-17T22:25:16.228Z,98630.91
2018-07-17T22:27:45.341Z,98636.47
2018-07-17T22:30:14.449Z,98637.19
2018-07-17T22:32:43.388Z,98637.06
2018-07-17T22:35:13.111Z,98639.13
2018-07-17T22:37:42.101Z,98642.91
2018-07-17T22:40:11.257Z,98639.45
2018-07-17T22:42:40.691Z,98635.80
2018-07-17T22:45:09.755Z,98641.20
2018-07-17T22:47:38.906Z,98646.32
2018-07-17T22:50:08.175Z,98635.52
2018-07-17T22:52:37.217Z,98645.09
2018-07-17T22:55:06.474Z,98640.21
2018-07-17T22:57:35.933Z,98640.28
2018-07-17T23:00:05.142Z,98643.06
2018-07-17T23:02:34.170Z,98639.37
2018-07-17T23:05:03.647Z,98640.08
2018-07-17T23:07:32.613Z,98635.08
2018-07-17T23:10:01.913Z,98641.73
2018-07-17T23:12:31.547Z,98646.69
2018-07-17T23:15:00.479Z,98643.99
2018-07-17T23:17:29.572Z,98657.88
2018-07-17T23:19:58.720Z,98654.34
2018-07-17T23:22:59.460Z,98656.53
2018-07-17T23:25:29.928Z,98665.69
2018-07-17T23:27:59.391Z,98654.97
2018-07-17T23:30:28.478Z,98646.71
2018-07-17T23:32:57.668Z,98652.63
2018-07-17T23:35:26.821Z,98650.12
2018-07-17T23:37:55.974Z,98650.44
2018-07-17T23:40:25.408Z,98647.58
2018-07-17T23:42:54.606Z,98656.03
2018-07-17T23:45:23.598Z,98644.24
2018-07-17T23:47:53.148Z,98648.16
2018-07-17T23:50:22.289Z,98645.76
2018-07-17T23:52:51.373Z,98648.84
2018-07-17T23:55:20.615Z,98650.55
2018-07-17T23:57:49.739Z,98645.73
